sensor_id;sensor_type;location;lat;lon;timestamp;pressure;altitude;pressure_sealevel;temperature;humidity
16690;BME280;8458;52.220;9.884;2022-09-12T00:01:45;101013.75;;;15.39;89.06
16690;BME280;8458;52.220;9.884;2022-09-12T00:04:12;101018.88;;;15.27;89.37
16690;BME280;8458;52.220;9.884;2022-09-12T00:06:38;101021.41;;;15.23;89.72
16690;BME280;8458;52.220;9.884;2022-09-12T00:09:07;101021.72;;;15.16;90.04
16690;BME280;8458;52.220;9.884;2022-09-12T00:11:35;101009.19;;;15.14;90.22
16690;BME280;8458;52.220;9.884;2022-09-12T00:14:03;101020.06;;;15.10;90.10
16690;BME280;8458;52.220;9.884;2022-09-12T00:16:31;101020.63;;;15.07;89.89
16690;BME280;8458;52.220;9.884;2022-09-12T00:18:59;101020.72;;;14.97;89.81
16690;BME280;8458;52.220;9.884;2022-09-12T00:21:26;101016.00;;;14.82;90.37
16690;BME280;8458;52.220;9.884;2022-09-12T00:23:53;101019.69;;;14.72;91.04
16690;BME280;8458;52.220;9.884;2022-09-12T00:26:20;101012.44;;;14.71;91.13
16690;BME280;8458;52.220;9.884;2022-09-12T00:28:48;101010.75;;;14.70;91.19
16690;BME280;8458;52.220;9.884;2022-09-12T00:31:16;101007.69;;;14.66;90.77
16690;BME280;8458;52.220;9.884;2022-09-12T00:33:43;101014.69;;;14.69;90.83
16690;BME280;8458;52.220;9.884;2022-09-12T00:36:12;101007.16;;;14.64;90.79
16690;BME280;8458;52.220;9.884;2022-09-12T00:38:40;101004.06;;;14.61;91.26
16690;BME280;8458;52.220;9.884;2022-09-12T00:41:10;101006.31;;;14.53;91.66
16690;BME280;8458;52.220;9.884;2022-09-12T00:43:40;101000.75;;;14.53;91.96
16690;BME280;8458;52.220;9.884;2022-09-12T00:46:15;101009.66;;;14.56;92.10
16690;BME280;8458;52.220;9.884;2022-09-12T00:48:47;101015.53;;;14.54;92.05
16690;BME280;8458;52.220;9.884;2022-09-12T00:51:16;101001.00;;;14.57;92.18
16690;BME280;8458;52.220;9.884;2022-09-12T00:53:43;101001.00;;;14.57;92.08
16690;BME280;8458;52.220;9.884;2022-09-12T00:56:13;101001.88;;;14.63;91.79
16690;BME280;8458;52.220;9.884;2022-09-12T00:58:43;100998.22;;;14.62;91.60
16690;BME280;8458;52.220;9.884;2022-09-12T01:01:14;100991.25;;;14.65;91.15
16690;BME280;8458;52.220;9.884;2022-09-12T01:03:40;100992.06;;;14.65;90.93
16690;BME280;8458;52.220;9.884;2022-09-12T01:06:10;100992.06;;;14.65;91.00
16690;BME280;8458;52.220;9.884;2022-09-12T01:08:40;100994.03;;;14.65;90.96
16690;BME280;8458;52.220;9.884;2022-09-12T01:11:10;100990.94;;;14.66;90.70
16690;BME280;8458;52.220;9.884;2022-09-12T01:13:37;100997.94;;;14.69;90.33
16690;BME280;8458;52.220;9.884;2022-09-12T01:16:05;100994.00;;;14.70;90.12
16690;BME280;8458;52.220;9.884;2022-09-12T01:18:43;100982.84;;;14.75;89.87
16690;BME280;8458;52.220;9.884;2022-09-12T01:21:18;100980.59;;;14.77;89.48
16690;BME280;8458;52.220;9.884;2022-09-12T01:24:13;100984.47;;;14.81;88.66
16690;BME280;8458;52.220;9.884;2022-09-12T01:27:11;100985.06;;;14.78;88.28
16690;BME280;8458;52.220;9.884;2022-09-12T01:29:58;100987.28;;;14.76;88.52
16690;BME280;8458;52.220;9.884;2022-09-12T01:32:36;100979.47;;;14.78;88.49
16690;BME280;8458;52.220;9.884;2022-09-12T01:35:14;100990.63;;;14.78;88.39
16690;BME280;8458;52.220;9.884;2022-09-12T01:37:53;100970.53;;;14.76;88.09
16690;BME280;8458;52.220;9.884;2022-09-12T01:40:28;100974.47;;;14.75;87.61
16690;BME280;8458;52.220;9.884;2022-09-12T01:43:04;100974.47;;;14.75;87.55
16690;BME280;8458;52.220;9.884;2022-09-12T01:45:38;100970.56;;;14.71;87.85
16690;BME280;8458;52.220;9.884;2022-09-12T01:48:13;100968.88;;;14.70;88.07
16690;BME280;8458;52.220;9.884;2022-09-12T01:50:46;100964.69;;;14.73;87.74
16690;BME280;8458;52.220;9.884;2022-09-12T01:53:18;100964.44;;;14.69;87.65
16690;BME280;8458;52.220;9.884;2022-09-12T01:55:49;100959.69;;;14.69;87.75
16690;BME280;8458;52.220;9.884;2022-09-12T01:58:20;100970.03;;;14.69;87.68
16690;BME280;8458;52.220;9.884;2022-09-12T02:00:50;100963.31;;;14.65;87.90
16690;BME280;8458;52.220;9.884;2022-09-12T02:03:23;100964.44;;;14.64;87.46
16690;BME280;8458;52.220;9.884;2022-09-12T02:05:55;100963.91;;;14.62;87.24
16690;BME280;8458;52.220;9.884;2022-09-12T02:08:26;100968.66;;;14.61;87.08
16690;BME280;8458;52.220;9.884;2022-09-12T02:10:56;100956.91;;;14.59;87.43
16690;BME280;8458;52.220;9.884;2022-09-12T02:13:30;100954.09;;;14.59;87.18
16690;BME280;8458;52.220;9.884;2022-09-12T02:16:02;100958.03;;;14.58;87.06
16690;BME280;8458;52.220;9.884;2022-09-12T02:18:33;100953.03;;;14.55;87.33
16690;BME280;8458;52.220;9.884;2022-09-12T02:21:03;100952.75;;;14.57;87.24
16690;BME280;8458;52.220;9.884;2022-09-12T02:23:32;100956.09;;;14.53;87.20
16690;BME280;8458;52.220;9.884;2022-09-12T02:26:04;100960.00;;;14.52;87.15
16690;BME280;8458;52.220;9.884;2022-09-12T02:28:37;100947.44;;;14.50;86.70
16690;BME280;8458;52.220;9.884;2022-09-12T02:31:18;100956.94;;;14.49;86.62
16690;BME280;8458;52.220;9.884;2022-09-12T02:33:58;100953.91;;;14.45;86.41
16690;BME280;8458;52.220;9.884;2022-09-12T02:36:34;100949.97;;;14.46;86.30
16690;BME280;8458;52.220;9.884;2022-09-12T02:39:04;100951.13;;;14.40;85.84
16690;BME280;8458;52.220;9.884;2022-09-12T02:41:30;100948.59;;;14.39;85.94
16690;BME280;8458;52.220;9.884;2022-09-12T02:43:57;100948.31;;;14.40;85.58
16690;BME280;8458;52.220;9.884;2022-09-12T02:46:27;100948.31;;;14.40;85.72
16690;BME280;8458;52.220;9.884;2022-09-12T02:48:59;100945.53;;;14.40;86.29
16690;BME280;8458;52.220;9.884;2022-09-12T02:51:26;100942.19;;;14.38;86.65
16690;BME280;8458;52.220;9.884;2022-09-12T02:53:52;100937.19;;;14.35;86.80
16690;BME280;8458;52.220;9.884;2022-09-12T02:56:23;100947.53;;;14.34;86.76
16690;BME280;8458;52.220;9.884;2022-09-12T02:58:51;100943.34;;;14.32;86.62
16690;BME280;8458;52.220;9.884;2022-09-12T03:01:28;100935.81;;;14.27;86.33
16690;BME280;8458;52.220;9.884;2022-09-12T03:04:14;100944.47;;;14.26;86.68
16690;BME280;8458;52.220;9.884;2022-09-12T03:06:51;100934.44;;;14.25;86.79
16690;BME280;8458;52.220;9.884;2022-09-12T03:09:28;100920.47;;;14.25;86.89
16690;BME280;8458;52.220;9.884;2022-09-12T03:12:07;100926.91;;;14.20;87.17
16690;BME280;8458;52.220;9.884;2022-09-12T03:14:49;100923.28;;;14.20;87.69
16690;BME280;8458;52.220;9.884;2022-09-12T03:17:24;100927.19;;;14.19;87.63
16690;BME280;8458;52.220;9.884;2022-09-12T03:19:58;100921.63;;;14.13;87.64
16690;BME280;8458;52.220;9.884;2022-09-12T03:22:31;100930.00;;;14.13;87.48
16690;BME280;8458;52.220;9.884;2022-09-12T03:25:03;100929.44;;;14.06;87.86
16690;BME280;8458;52.220;9.884;2022-09-12T03:27:33;100926.69;;;14.11;87.38
16690;BME280;8458;52.220;9.884;2022-09-12T03:30:02;100929.72;;;14.05;87.17
16690;BME280;8458;52.220;9.884;2022-09-12T03:32:39;100920.53;;;14.04;87.28
16690;BME280;8458;52.220;9.884;2022-09-12T03:35:07;100926.13;;;14.04;86.86
16690;BME280;8458;52.220;9.884;2022-09-12T03:37:35;100924.72;;;14.02;87.06
16690;BME280;8458;52.220;9.884;2022-09-12T03:40:02;100937.00;;;14.01;87.15
16690;BME280;8458;52.220;9.884;2022-09-12T03:42:29;100938.97;;;13.90;87.36
16690;BME280;8458;52.220;9.884;2022-09-12T03:44:55;100931.19;;;13.87;87.56
16690;BME280;8458;52.220;9.884;2022-09-12T03:47:22;100931.19;;;13.76;87.98
16690;BME280;8458;52.220;9.884;2022-09-12T03:49:48;100928.41;;;13.76;88.29
16690;BME280;8458;52.220;9.884;2022-09-12T03:52:18;100928.94;;;13.78;88.01
16690;BME280;8458;52.220;9.884;2022-09-12T03:54:45;100939.81;;;13.80;87.49
16690;BME280;8458;52.220;9.884;2022-09-12T03:57:11;100932.31;;;13.80;87.04
16690;BME280;8458;52.220;9.884;2022-09-12T03:59:38;100932.03;;;13.72;87.24
16690;BME280;8458;52.220;9.884;2022-09-12T04:02:04;100940.38;;;13.61;87.59
16690;BME280;8458;52.220;9.884;2022-09-12T04:04:31;100935.66;;;13.62;87.65
16690;BME280;8458;52.220;9.884;2022-09-12T04:06:57;100940.94;;;13.58;87.64
16690;BME280;8458;52.220;9.884;2022-09-12T04:09:25;100939.00;;;13.59;87.75
16690;BME280;8458;52.220;9.884;2022-09-12T04:11:52;100933.13;;;13.55;87.77
16690;BME280;8458;52.220;9.884;2022-09-12T04:14:18;100935.09;;;13.55;87.86
16690;BME280;8458;52.220;9.884;2022-09-12T04:16:45;100941.50;;;13.55;87.79
16690;BME280;8458;52.220;9.884;2022-09-12T04:19:12;100941.50;;;13.55;87.76
16690;BME280;8458;52.220;9.884;2022-09-12T04:21:38;100940.13;;;13.58;87.34
16690;BME280;8458;52.220;9.884;2022-09-12T04:24:05;100942.91;;;13.53;87.25
16690;BME280;8458;52.220;9.884;2022-09-12T04:26:33;100942.31;;;13.51;87.07
16690;BME280;8458;52.220;9.884;2022-09-12T04:28:59;100945.41;;;13.54;87.71
16690;BME280;8458;52.220;9.884;2022-09-12T04:31:26;100945.13;;;13.51;87.99
16690;BME280;8458;52.220;9.884;2022-09-12T04:33:53;100933.97;;;13.51;88.65
16690;BME280;8458;52.220;9.884;2022-09-12T04:36:20;100944.00;;;13.52;88.72
16690;BME280;8458;52.220;9.884;2022-09-12T04:38:47;100941.78;;;13.49;88.75
16690;BME280;8458;52.220;9.884;2022-09-12T04:41:15;100937.91;;;13.50;88.66
16690;BME280;8458;52.220;9.884;2022-09-12T04:43:44;100946.78;;;13.52;88.91
16690;BME280;8458;52.220;9.884;2022-09-12T04:46:13;100941.22;;;13.52;88.88
16690;BME280;8458;52.220;9.884;2022-09-12T04:48:41;100942.06;;;13.52;88.57
16690;BME280;8458;52.220;9.884;2022-09-12T04:51:10;100941.78;;;13.49;88.75
16690;BME280;8458;52.220;9.884;2022-09-12T04:53:38;100930.09;;;13.47;89.14
16690;BME280;8458;52.220;9.884;2022-09-12T04:56:06;100937.91;;;13.50;89.06
16690;BME280;8458;52.220;9.884;2022-09-12T04:58:33;100939.53;;;13.51;89.05
16690;BME280;8458;52.220;9.884;2022-09-12T05:01:05;100938.44;;;13.47;89.31
16690;BME280;8458;52.220;9.884;2022-09-12T05:03:31;100935.09;;;13.50;89.44
16690;BME280;8458;52.220;9.884;2022-09-12T05:06:01;100942.91;;;13.53;89.17
16690;BME280;8458;52.220;9.884;2022-09-12T05:08:27;100943.47;;;13.50;89.38
16690;BME280;8458;52.220;9.884;2022-09-12T05:10:54;100942.59;;;13.49;89.37
16690;BME280;8458;52.220;9.884;2022-09-12T05:13:21;100945.13;;;13.51;89.26
16690;BME280;8458;52.220;9.884;2022-09-12T05:15:53;100950.41;;;13.47;89.14
16690;BME280;8458;52.220;9.884;2022-09-12T05:18:21;100950.69;;;13.45;89.24
16690;BME280;8458;52.220;9.884;2022-09-12T05:20:48;100947.91;;;13.45;89.17
16690;BME280;8458;52.220;9.884;2022-09-12T05:23:14;100951.53;;;13.46;89.26
16690;BME280;8458;52.220;9.884;2022-09-12T05:25:47;100955.16;;;13.47;89.23
16690;BME280;8458;52.220;9.884;2022-09-12T05:28:14;100957.38;;;13.44;89.31
16690;BME280;8458;52.220;9.884;2022-09-12T05:30:40;100951.53;;;13.41;89.30
16690;BME280;8458;52.220;9.884;2022-09-12T05:33:06;100960.16;;;13.44;89.41
16690;BME280;8458;52.220;9.884;2022-09-12T05:35:34;100959.06;;;13.45;89.51
16690;BME280;8458;52.220;9.884;2022-09-12T05:38:02;100959.88;;;13.46;89.47
16690;BME280;8458;52.220;9.884;2022-09-12T05:40:28;100959.59;;;13.42;90.10
16690;BME280;8458;52.220;9.884;2022-09-12T05:42:55;100954.03;;;13.42;90.64
16690;BME280;8458;52.220;9.884;2022-09-12T05:45:21;100958.78;;;13.47;90.48
16690;BME280;8458;52.220;9.884;2022-09-12T05:47:48;100955.16;;;13.47;90.53
16690;BME280;8458;52.220;9.884;2022-09-12T05:50:15;100956.53;;;13.49;91.24
16690;BME280;8458;52.220;9.884;2022-09-12T05:52:42;100956.56;;;13.54;91.46
16690;BME280;8458;52.220;9.884;2022-09-12T05:55:09;100959.91;;;13.51;91.79
16690;BME280;8458;52.220;9.884;2022-09-12T05:57:36;100956.00;;;13.57;92.01
16690;BME280;8458;52.220;9.884;2022-09-12T06:00:03;100963.53;;;13.62;92.54
16690;BME280;8458;52.220;9.884;2022-09-12T06:02:31;100967.41;;;13.66;92.71
16690;BME280;8458;52.220;9.884;2022-09-12T06:04:57;100965.75;;;13.70;92.80
16690;BME280;8458;52.220;9.884;2022-09-12T06:07:24;100966.31;;;13.77;92.67
16690;BME280;8458;52.220;9.884;2022-09-12T06:09:51;100965.75;;;13.70;92.35
16690;BME280;8458;52.220;9.884;2022-09-12T06:12:18;100961.56;;;13.73;92.47
16690;BME280;8458;52.220;9.884;2022-09-12T06:14:44;100958.50;;;13.79;92.53
16690;BME280;8458;52.220;9.884;2022-09-12T06:17:11;100961.81;;;13.81;92.45
16690;BME280;8458;52.220;9.884;2022-09-12T06:19:38;100959.34;;;13.85;92.56
16690;BME280;8458;52.220;9.884;2022-09-12T06:22:04;100961.28;;;13.90;92.95
16690;BME280;8458;52.220;9.884;2022-09-12T06:24:31;100954.28;;;13.92;93.32
16690;BME280;8458;52.220;9.884;2022-09-12T06:26:59;100951.81;;;13.96;93.37
16690;BME280;8458;52.220;9.884;2022-09-12T06:29:26;100955.38;;;14.02;93.72
16690;BME280;8458;52.220;9.884;2022-09-12T06:31:53;100951.22;;;13.99;94.06
16690;BME280;8458;52.220;9.884;2022-09-12T06:34:19;100955.13;;;14.08;94.21
16690;BME280;8458;52.220;9.884;2022-09-12T06:36:47;100951.75;;;14.16;94.08
16690;BME280;8458;52.220;9.884;2022-09-12T06:39:15;100942.81;;;14.20;94.09
16690;BME280;8458;52.220;9.884;2022-09-12T06:41:42;100953.13;;;14.24;94.14
16690;BME280;8458;52.220;9.884;2022-09-12T06:44:11;100949.47;;;14.29;94.54
16690;BME280;8458;52.220;9.884;2022-09-12T06:46:38;100953.09;;;14.34;94.67
16690;BME280;8458;52.220;9.884;2022-09-12T06:49:04;100950.53;;;14.43;94.32
16690;BME280;8458;52.220;9.884;2022-09-12T06:51:32;100941.31;;;14.48;94.58
16690;BME280;8458;52.220;9.884;2022-09-12T06:53:59;100941.00;;;14.60;94.22
16690;BME280;8458;52.220;9.884;2022-09-12T06:56:26;100944.09;;;14.63;94.37
16690;BME280;8458;52.220;9.884;2022-09-12T06:58:55;100945.69;;;14.75;94.17
16690;BME280;8458;52.220;9.884;2022-09-12T07:01:25;100942.03;;;14.79;94.26
16690;BME280;8458;52.220;9.884;2022-09-12T07:03:53;100930.25;;;14.93;95.95
16690;BME280;8458;52.220;9.884;2022-09-12T07:06:21;100936.63;;;15.03;96.52
16690;BME280;8458;52.220;9.884;2022-09-12T07:08:50;100930.63;;;15.20;97.32
16690;BME280;8458;52.220;9.884;2022-09-12T07:11:18;100943.91;;;15.39;95.76
16690;BME280;8458;52.220;9.884;2022-09-12T07:13:47;100939.09;;;15.50;95.39
16690;BME280;8458;52.220;9.884;2022-09-12T07:16:15;100937.97;;;15.51;95.76
16690;BME280;8458;52.220;9.884;2022-09-12T07:18:43;100936.16;;;15.65;95.85
16690;BME280;8458;52.220;9.884;2022-09-12T07:21:12;100941.94;;;15.79;95.61
16690;BME280;8458;52.220;9.884;2022-09-12T07:23:39;100938.13;;;15.94;94.93
16690;BME280;8458;52.220;9.884;2022-09-12T07:26:09;100945.59;;;16.04;94.47
16690;BME280;8458;52.220;9.884;2022-09-12T07:28:36;100945.56;;;16.09;93.76
16690;BME280;8458;52.220;9.884;2022-09-12T07:31:06;100944.91;;;16.17;93.39
16690;BME280;8458;52.220;9.884;2022-09-12T07:33:34;100943.06;;;16.31;92.85
16690;BME280;8458;52.220;9.884;2022-09-12T07:36:03;100941.75;;;16.48;92.86
16690;BME280;8458;52.220;9.884;2022-09-12T07:38:30;100934.00;;;16.64;92.25
16690;BME280;8458;52.220;9.884;2022-09-12T07:40:56;100943.03;;;16.80;92.25
16690;BME280;8458;52.220;9.884;2022-09-12T07:43:23;100936.72;;;16.93;91.95
16690;BME280;8458;52.220;9.884;2022-09-12T07:45:53;100938.75;;;17.07;91.52
16690;BME280;8458;52.220;9.884;2022-09-12T07:48:20;100943.91;;;17.18;92.16
16690;BME280;8458;52.220;9.884;2022-09-12T07:50:56;100945.41;;;17.30;92.02
16690;BME280;8458;52.220;9.884;2022-09-12T07:53:24;100949.66;;;17.46;91.70
16690;BME280;8458;52.220;9.884;2022-09-12T07:55:54;100941.81;;;17.62;91.07
16690;BME280;8458;52.220;9.884;2022-09-12T07:58:21;100942.28;;;17.69;88.59
16690;BME280;8458;52.220;9.884;2022-09-12T08:00:48;100943.22;;;17.79;88.34
16690;BME280;8458;52.220;9.884;2022-09-12T08:03:14;100944.63;;;17.95;88.12
16690;BME280;8458;52.220;9.884;2022-09-12T08:05:41;100949.25;;;18.05;87.72
16690;BME280;8458;52.220;9.884;2022-09-12T08:08:08;100962.13;;;18.20;87.97
16690;BME280;8458;52.220;9.884;2022-09-12T08:10:36;100956.75;;;18.37;87.20
16690;BME280;8458;52.220;9.884;2022-09-12T08:13:03;100947.50;;;18.51;86.90
16690;BME280;8458;52.220;9.884;2022-09-12T08:15:29;100954.66;;;18.57;86.29
16690;BME280;8458;52.220;9.884;2022-09-12T08:17:56;100952.59;;;18.76;84.94
16690;BME280;8458;52.220;9.884;2022-09-12T08:20:22;100950.16;;;18.84;84.88
16690;BME280;8458;52.220;9.884;2022-09-12T08:22:49;100948.31;;;18.93;84.26
16690;BME280;8458;52.220;9.884;2022-09-12T08:25:16;100949.44;;;19.06;83.19
16690;BME280;8458;52.220;9.884;2022-09-12T08:27:43;100938.59;;;19.13;83.43
16690;BME280;8458;52.220;9.884;2022-09-12T08:30:12;100951.69;;;19.17;83.47
16690;BME280;8458;52.220;9.884;2022-09-12T08:32:39;100942.47;;;19.40;82.50
16690;BME280;8458;52.220;9.884;2022-09-12T08:35:06;100938.56;;;19.49;80.93
16690;BME280;8458;52.220;9.884;2022-09-12T08:37:32;100939.47;;;19.59;81.16
16690;BME280;8458;52.220;9.884;2022-09-12T08:39:59;100933.59;;;19.69;80.18
16690;BME280;8458;52.220;9.884;2022-09-12T08:42:35;100935.66;;;19.77;79.55
16690;BME280;8458;52.220;9.884;2022-09-12T08:45:15;100935.03;;;19.89;80.80
16690;BME280;8458;52.220;9.884;2022-09-12T08:47:44;100935.47;;;20.05;81.47
16690;BME280;8458;52.220;9.884;2022-09-12T08:50:15;100934.72;;;20.22;79.25
16690;BME280;8458;52.220;9.884;2022-09-12T08:52:48;100933.97;;;20.39;79.66
16690;BME280;8458;52.220;9.884;2022-09-12T08:55:24;100929.22;;;20.57;78.14
16690;BME280;8458;52.220;9.884;2022-09-12T08:57:52;100917.84;;;20.71;76.29
16690;BME280;8458;52.220;9.884;2022-09-12T09:00:20;100925.00;;;20.77;75.10
16690;BME280;8458;52.220;9.884;2022-09-12T09:05:57;100921.38;;;21.03;74.39
16690;BME280;8458;52.220;9.884;2022-09-12T09:08:40;100928.03;;;21.07;73.37
16690;BME280;8458;52.220;9.884;2022-09-12T09:11:20;100927.00;;;21.11;74.84
16690;BME280;8458;52.220;9.884;2022-09-12T09:13:56;100918.41;;;21.25;74.59
16690;BME280;8458;52.220;9.884;2022-09-12T09:16:48;100920.75;;;21.49;74.05
16690;BME280;8458;52.220;9.884;2022-09-12T09:19:18;100912.59;;;21.65;72.12
16690;BME280;8458;52.220;9.884;2022-09-12T09:21:50;100909.56;;;21.79;71.29
16690;BME280;8458;52.220;9.884;2022-09-12T09:24:23;100912.53;;;21.92;72.20
16690;BME280;8458;52.220;9.884;2022-09-12T09:26:55;100900.53;;;22.03;71.85
16690;BME280;8458;52.220;9.884;2022-09-12T09:29:26;100908.31;;;22.15;70.27
16690;BME280;8458;52.220;9.884;2022-09-12T09:31:59;100902.13;;;22.22;68.80
16690;BME280;8458;52.220;9.884;2022-09-12T09:34:29;100907.44;;;22.32;68.72
16690;BME280;8458;52.220;9.884;2022-09-12T09:37:01;100907.84;;;22.43;68.43
16690;BME280;8458;52.220;9.884;2022-09-12T09:39:40;100899.47;;;22.55;68.29
16690;BME280;8458;52.220;9.884;2022-09-12T09:42:18;100893.31;;;22.62;66.69
16690;BME280;8458;52.220;9.884;2022-09-12T09:44:51;100891.25;;;22.71;67.89
16690;BME280;8458;52.220;9.884;2022-09-12T09:47:20;100895.69;;;22.81;66.95
16690;BME280;8458;52.220;9.884;2022-09-12T09:49:46;100892.63;;;22.86;66.25
16690;BME280;8458;52.220;9.884;2022-09-12T09:52:14;100884.09;;;22.95;65.54
16690;BME280;8458;52.220;9.884;2022-09-12T09:54:45;100885.34;;;23.06;65.59
16690;BME280;8458;52.220;9.884;2022-09-12T09:57:39;100884.25;;;23.20;64.31
16690;BME280;8458;52.220;9.884;2022-09-12T10:00:26;100879.78;;;23.19;61.16
16690;BME280;8458;52.220;9.884;2022-09-12T10:03:23;100883.78;;;23.18;61.85
16690;BME280;8458;52.220;9.884;2022-09-12T10:05:52;100875.78;;;23.20;63.39
16690;BME280;8458;52.220;9.884;2022-09-12T10:08:24;100864.06;;;23.30;62.45
16690;BME280;8458;52.220;9.884;2022-09-12T10:10:52;100867.56;;;23.27;59.24
16690;BME280;8458;52.220;9.884;2022-09-12T10:13:24;100873.69;;;23.29;58.14
16690;BME280;8458;52.220;9.884;2022-09-12T10:15:57;100871.50;;;23.35;58.72
16690;BME280;8458;52.220;9.884;2022-09-12T10:18:38;100862.56;;;23.45;60.44
16690;BME280;8458;52.220;9.884;2022-09-12T10:21:24;100866.97;;;23.55;60.95
16690;BME280;8458;52.220;9.884;2022-09-12T10:23:59;100862.50;;;23.66;57.95
16690;BME280;8458;52.220;9.884;2022-09-12T10:26:31;100871.09;;;23.57;57.48
16690;BME280;8458;52.220;9.884;2022-09-12T10:29:03;100860.47;;;23.54;56.49
16690;BME280;8458;52.220;9.884;2022-09-12T10:31:35;100855.38;;;23.48;56.60
16690;BME280;8458;52.220;9.884;2022-09-12T10:34:22;100865.44;;;23.57;56.72
16690;BME280;8458;52.220;9.884;2022-09-12T10:36:52;100863.44;;;23.58;55.18
16690;BME280;8458;52.220;9.884;2022-09-12T10:39:20;100856.84;;;23.66;55.53
16690;BME280;8458;52.220;9.884;2022-09-12T10:41:46;100860.53;;;23.79;56.22
16690;BME280;8458;52.220;9.884;2022-09-12T10:44:15;100863.94;;;23.72;54.11
16690;BME280;8458;52.220;9.884;2022-09-12T10:46:41;100855.34;;;23.69;53.52
16690;BME280;8458;52.220;9.884;2022-09-12T10:49:19;100853.41;;;23.60;53.32
16690;BME280;8458;52.220;9.884;2022-09-12T10:51:46;100848.09;;;23.59;52.69
16690;BME280;8458;52.220;9.884;2022-09-12T10:54:15;100846.53;;;23.49;52.72
16690;BME280;8458;52.220;9.884;2022-09-12T10:56:53;100844.75;;;23.44;52.16
16690;BME280;8458;52.220;9.884;2022-09-12T10:59:31;100845.53;;;23.33;52.85
16690;BME280;8458;52.220;9.884;2022-09-12T11:02:03;100851.16;;;23.20;53.22
16690;BME280;8458;52.220;9.884;2022-09-12T11:04:48;100843.56;;;23.12;53.48
16690;BME280;8458;52.220;9.884;2022-09-12T11:07:33;100839.44;;;23.09;54.96
16690;BME280;8458;52.220;9.884;2022-09-12T11:10:09;100842.47;;;23.25;55.72
16690;BME280;8458;52.220;9.884;2022-09-12T11:12:41;100829.75;;;23.32;54.37
16690;BME280;8458;52.220;9.884;2022-09-12T11:15:25;100833.19;;;23.37;54.26
16690;BME280;8458;52.220;9.884;2022-09-12T11:17:59;100839.59;;;23.59;55.96
16690;BME280;8458;52.220;9.884;2022-09-12T11:20:42;100834.91;;;23.63;50.88
16690;BME280;8458;52.220;9.884;2022-09-12T11:23:41;100836.56;;;23.64;49.32
16690;BME280;8458;52.220;9.884;2022-09-12T11:26:33;100836.34;;;23.69;49.91
16690;BME280;8458;52.220;9.884;2022-09-12T11:29:11;100819.22;;;23.78;49.96
16690;BME280;8458;52.220;9.884;2022-09-12T11:31:52;100834.97;;;23.88;51.92
16690;BME280;8458;52.220;9.884;2022-09-12T11:34:32;100826.22;;;23.80;51.09
16690;BME280;8458;52.220;9.884;2022-09-12T11:37:18;100821.66;;;24.01;51.43
16690;BME280;8458;52.220;9.884;2022-09-12T11:39:53;100806.44;;;24.05;50.74
16690;BME280;8458;52.220;9.884;2022-09-12T11:42:25;100809.03;;;24.10;50.67
16690;BME280;8458;52.220;9.884;2022-09-12T11:45:00;100812.00;;;24.26;51.50
16690;BME280;8458;52.220;9.884;2022-09-12T11:47:31;100803.00;;;24.37;49.95
16690;BME280;8458;52.220;9.884;2022-09-12T11:50:02;100815.38;;;24.32;49.22
16690;BME280;8458;52.220;9.884;2022-09-12T11:52:34;100812.81;;;24.27;48.41
16690;BME280;8458;52.220;9.884;2022-09-12T11:55:05;100818.47;;;24.14;49.06
16690;BME280;8458;52.220;9.884;2022-09-12T11:57:38;100805.97;;;24.15;49.08
16690;BME280;8458;52.220;9.884;2022-09-12T12:00:14;100811.16;;;24.26;49.34
16690;BME280;8458;52.220;9.884;2022-09-12T12:02:49;100808.09;;;24.31;49.13
16690;BME280;8458;52.220;9.884;2022-09-12T12:05:23;100798.63;;;24.39;47.69
16690;BME280;8458;52.220;9.884;2022-09-12T12:07:55;100801.00;;;24.37;47.61
16690;BME280;8458;52.220;9.884;2022-09-12T12:10:25;100795.78;;;24.39;48.42
16690;BME280;8458;52.220;9.884;2022-09-12T12:12:53;100795.53;;;24.44;47.45
16690;BME280;8458;52.220;9.884;2022-09-12T12:15:22;100801.22;;;24.44;45.94
16690;BME280;8458;52.220;9.884;2022-09-12T12:20:25;100787.28;;;24.51;46.72
16690;BME280;8458;52.220;9.884;2022-09-12T12:22:54;100790.81;;;24.61;48.20
16690;BME280;8458;52.220;9.884;2022-09-12T12:25:25;100789.84;;;24.69;47.44
16690;BME280;8458;52.220;9.884;2022-09-12T12:28:01;100788.91;;;24.77;47.81
16690;BME280;8458;52.220;9.884;2022-09-12T12:30:58;100799.88;;;24.79;46.30
16690;BME280;8458;52.220;9.884;2022-09-12T12:36:40;100782.19;;;24.98;47.02
16690;BME280;8458;52.220;9.884;2022-09-12T12:46:05;100779.31;;;25.10;46.33
16690;BME280;8458;52.220;9.884;2022-09-12T12:48:53;100779.97;;;25.19;46.40
16690;BME280;8458;52.220;9.884;2022-09-12T12:51:37;100776.78;;;25.21;44.49
16690;BME280;8458;52.220;9.884;2022-09-12T12:57:17;100776.78;;;25.21;44.20
16690;BME280;8458;52.220;9.884;2022-09-12T12:59:47;100771.19;;;25.24;45.24
16690;BME280;8458;52.220;9.884;2022-09-12T13:02:20;100769.53;;;25.23;43.91
16690;BME280;8458;52.220;9.884;2022-09-12T13:04:47;100751.97;;;25.18;44.39
16690;BME280;8458;52.220;9.884;2022-09-12T13:07:23;100754.28;;;25.00;44.46
16690;BME280;8458;52.220;9.884;2022-09-12T13:09:51;100759.56;;;24.85;44.75
16690;BME280;8458;52.220;9.884;2022-09-12T13:12:21;100746.56;;;24.84;43.96
16690;BME280;8458;52.220;9.884;2022-09-12T13:14:52;100748.00;;;24.78;45.21
16690;BME280;8458;52.220;9.884;2022-09-12T13:17:34;100738.25;;;24.92;44.78
16690;BME280;8458;52.220;9.884;2022-09-12T13:20:18;100740.78;;;25.09;45.37
16690;BME280;8458;52.220;9.884;2022-09-12T13:22:49;100736.88;;;25.30;44.95
16690;BME280;8458;52.220;9.884;2022-09-12T13:25:26;100733.53;;;25.56;45.30
16690;BME280;8458;52.220;9.884;2022-09-12T13:27:57;100733.44;;;25.68;44.74
16690;BME280;8458;52.220;9.884;2022-09-12T13:30:25;100736.28;;;25.84;44.87
16690;BME280;8458;52.220;9.884;2022-09-12T13:32:55;100737.56;;;25.71;43.95
16690;BME280;8458;52.220;9.884;2022-09-12T13:35:28;100730.41;;;25.77;43.94
16690;BME280;8458;52.220;9.884;2022-09-12T13:38:01;100722.59;;;25.90;44.38
16690;BME280;8458;52.220;9.884;2022-09-12T13:40:37;100720.41;;;25.99;43.41